Airfield :
LOGIN :

Register | Disclaimer

   EN    FR    IT 

 










Legend :    VFR   Marginal VFR   IFR   Intensive IFR   Very Intensive IFR
Visi :
Ceiling :
>= 8 km
>= 3000ft
5 to 8 km
1000 to 3000 ft
1500m to 5 km
500 to 1000 ft
800 to 1500m
200 to 500 ft
< 800m
< 200 ft
Symbols :   Thunderstorms  Fog  Heavy snow  Heavy precipitations  Wind > 20 kt
SIGMETs :     Misc.  Thunderstorms  Icing  Turbulence  Mountain Waves  Volcanic Ashes






- Airport Elevation : 1470 ft
- IATA code : KLU


LOWK - Klagenfurt

CURRENT METAR :
  • 230720Z AUTO VRB01KT 9999 NCD 22/17 Q1020 NOSIG

EXPIRED METARs :
  • 230650Z AUTO VRB02KT 9999 NCD 21/17 Q1020 NOSIG
  • 230620Z AUTO 28003KT 230V320 9999 FEW009 20/17 Q1020 NOSIG
  • 230550Z AUTO VRB01KT 9999 FEW003 20/17 Q1020 NOSIG
  • 230520Z VRB01KT 9999 FEW001 19/18 Q1020 NOSIG
  • 230450Z VRB01KT 9000 FEW001 SCT005 BKN006 18/17 Q1020 BECMG FEW007
  • 230420Z VRB02KT 8000 1500E BR FEW001 SCT005 BKN006 17/16 Q1020 TEMPO 3000 BR BECMG FM0450 FEW007
  • 230350Z VRB01KT 9999 FEW005 SCT006 BKN080 17/16 Q1020 TEMPO FEW006 BKN007
  • 230320Z VRB01KT 9999 MIFG FEW006 SCT070 17/16 Q1020 NOSIG
  • 230250Z AUTO 29003KT 9999 FEW011 17/16 Q1019

TAF TAF LOWK
Valid from the 23 at 06:00 until the 24 at 06:00 UTC


230515Z 2306/2406 10003KT 9999 FEW050 SCT080 TX28/2313Z TN17/2404Z
TEMPO 2313/2321 SHRA
PROB30
TEMPO 2314/2319 01015G25KT TSRA FEW050CB
TEMPO 2323/2406 BKN008



MET'MAP, your aeronautical weather chart ! - Copyright ORBIFLY December 2007 - Disclaimer

ORBIFLY MET'MAP TEAM :

Programming & Development : Alexandra Zaïnal
Original concept : Baudouin d'Aumeries
Technical & hardware support : Manuel Goepfert
Assistance : Marc-Olivier Méhu




SOURCES & CREDITS :

   NOAA